sensor_id;sensor_type;location;lat;lon;timestamp;P1;durP1;ratioP1;P2;durP2;ratioP2
12433;SDS011;6281;49.038;8.372;2022-09-03T00:00:22;2.20;;;1.73;;
12433;SDS011;6281;49.038;8.372;2022-09-03T00:02:52;2.13;;;1.70;;
12433;SDS011;6281;49.038;8.372;2022-09-03T00:05:28;3.20;;;1.73;;
12433;SDS011;6281;49.038;8.372;2022-09-03T00:08:01;1.70;;;1.60;;
12433;SDS011;6281;49.038;8.372;2022-09-03T00:10:34;2.03;;;1.60;;
12433;SDS011;6281;49.038;8.372;2022-09-03T00:13:09;2.90;;;1.70;;
12433;SDS011;6281;49.038;8.372;2022-09-03T00:15:41;2.27;;;1.80;;
12433;SDS011;6281;49.038;8.372;2022-09-03T00:21:00;2.53;;;1.67;;
12433;SDS011;6281;49.038;8.372;2022-09-03T00:23:33;2.60;;;1.60;;
12433;SDS011;6281;49.038;8.372;2022-09-03T00:26:05;2.03;;;1.60;;
12433;SDS011;6281;49.038;8.372;2022-09-03T00:28:43;4.97;;;1.90;;
12433;SDS011;6281;49.038;8.372;2022-09-03T00:31:15;5.50;;;1.73;;
12433;SDS011;6281;49.038;8.372;2022-09-03T00:33:51;2.20;;;1.93;;
12433;SDS011;6281;49.038;8.372;2022-09-03T00:36:26;2.90;;;1.90;;
12433;SDS011;6281;49.038;8.372;2022-09-03T00:38:57;1.70;;;1.60;;
12433;SDS011;6281;49.038;8.372;2022-09-03T00:41:26;2.13;;;1.60;;
12433;SDS011;6281;49.038;8.372;2022-09-03T00:44:07;2.97;;;1.90;;
12433;SDS011;6281;49.038;8.372;2022-09-03T00:46:48;6.93;;;2.50;;
12433;SDS011;6281;49.038;8.372;2022-09-03T00:49:27;6.47;;;2.30;;
12433;SDS011;6281;49.038;8.372;2022-09-03T00:52:06;7.90;;;2.67;;
12433;SDS011;6281;49.038;8.372;2022-09-03T00:54:41;11.23;;;3.03;;
12433;SDS011;6281;49.038;8.372;2022-09-03T00:57:27;11.60;;;2.80;;
12433;SDS011;6281;49.038;8.372;2022-09-03T01:00:04;11.93;;;3.33;;
12433;SDS011;6281;49.038;8.372;2022-09-03T01:02:39;7.90;;;2.30;;
12433;SDS011;6281;49.038;8.372;2022-09-03T01:05:19;11.63;;;3.13;;
12433;SDS011;6281;49.038;8.372;2022-09-03T01:08:01;13.47;;;2.53;;
12433;SDS011;6281;49.038;8.372;2022-09-03T01:10:39;3.23;;;2.27;;
12433;SDS011;6281;49.038;8.372;2022-09-03T01:13:15;2.03;;;1.70;;
12433;SDS011;6281;49.038;8.372;2022-09-03T01:15:49;4.00;;;1.97;;
12433;SDS011;6281;49.038;8.372;2022-09-03T01:18:34;2.27;;;1.73;;
12433;SDS011;6281;49.038;8.372;2022-09-03T01:21:15;3.87;;;2.00;;
12433;SDS011;6281;49.038;8.372;2022-09-03T01:24:04;3.03;;;1.80;;
12433;SDS011;6281;49.038;8.372;2022-09-03T01:26:47;4.50;;;1.80;;
12433;SDS011;6281;49.038;8.372;2022-09-03T01:29:37;1.60;;;1.50;;
12433;SDS011;6281;49.038;8.372;2022-09-03T01:32:10;2.40;;;1.60;;
12433;SDS011;6281;49.038;8.372;2022-09-03T01:34:48;3.83;;;2.17;;
12433;SDS011;6281;49.038;8.372;2022-09-03T01:37:22;3.53;;;1.90;;
12433;SDS011;6281;49.038;8.372;2022-09-03T01:40:00;3.70;;;1.87;;
12433;SDS011;6281;49.038;8.372;2022-09-03T01:42:32;1.90;;;1.70;;
12433;SDS011;6281;49.038;8.372;2022-09-03T01:45:22;1.67;;;1.57;;
12433;SDS011;6281;49.038;8.372;2022-09-03T01:48:07;3.60;;;1.90;;
12433;SDS011;6281;49.038;8.372;2022-09-03T01:50:45;2.57;;;2.17;;
12433;SDS011;6281;49.038;8.372;2022-09-03T01:53:18;2.33;;;2.03;;
12433;SDS011;6281;49.038;8.372;2022-09-03T01:56:02;2.63;;;1.90;;
12433;SDS011;6281;49.038;8.372;2022-09-03T01:58:41;3.90;;;2.20;;
12433;SDS011;6281;49.038;8.372;2022-09-03T02:01:13;3.27;;;2.27;;
12433;SDS011;6281;49.038;8.372;2022-09-03T02:03:47;2.97;;;2.07;;
12433;SDS011;6281;49.038;8.372;2022-09-03T02:06:14;2.83;;;1.97;;
12433;SDS011;6281;49.038;8.372;2022-09-03T02:08:44;3.33;;;2.30;;
12433;SDS011;6281;49.038;8.372;2022-09-03T02:11:11;2.83;;;2.33;;
12433;SDS011;6281;49.038;8.372;2022-09-03T02:13:40;3.40;;;2.30;;
12433;SDS011;6281;49.038;8.372;2022-09-03T02:16:09;4.13;;;2.47;;
12433;SDS011;6281;49.038;8.372;2022-09-03T02:21:38;3.03;;;2.50;;
12433;SDS011;6281;49.038;8.372;2022-09-03T02:24:09;4.00;;;2.30;;
12433;SDS011;6281;49.038;8.372;2022-09-03T02:26:36;3.13;;;2.60;;
12433;SDS011;6281;49.038;8.372;2022-09-03T02:29:03;3.40;;;2.33;;
12433;SDS011;6281;49.038;8.372;2022-09-03T02:31:30;2.90;;;2.50;;
12433;SDS011;6281;49.038;8.372;2022-09-03T02:33:57;2.70;;;2.50;;
12433;SDS011;6281;49.038;8.372;2022-09-03T02:36:27;2.83;;;2.30;;
12433;SDS011;6281;49.038;8.372;2022-09-03T02:38:58;4.57;;;2.63;;
12433;SDS011;6281;49.038;8.372;2022-09-03T02:41:25;3.03;;;2.37;;
12433;SDS011;6281;49.038;8.372;2022-09-03T02:43:53;4.03;;;2.67;;
12433;SDS011;6281;49.038;8.372;2022-09-03T02:46:27;2.50;;;2.30;;
12433;SDS011;6281;49.038;8.372;2022-09-03T02:48:58;2.90;;;2.53;;
12433;SDS011;6281;49.038;8.372;2022-09-03T02:51:26;3.43;;;2.80;;
12433;SDS011;6281;49.038;8.372;2022-09-03T02:53:57;5.23;;;2.43;;
12433;SDS011;6281;49.038;8.372;2022-09-03T02:56:24;2.80;;;2.50;;
12433;SDS011;6281;49.038;8.372;2022-09-03T02:58:52;5.37;;;2.53;;
12433;SDS011;6281;49.038;8.372;2022-09-03T03:01:19;3.90;;;2.67;;
12433;SDS011;6281;49.038;8.372;2022-09-03T03:03:45;3.37;;;2.27;;
12433;SDS011;6281;49.038;8.372;2022-09-03T03:06:12;3.10;;;2.20;;
12433;SDS011;6281;49.038;8.372;2022-09-03T03:08:40;3.40;;;2.87;;
12433;SDS011;6281;49.038;8.372;2022-09-03T03:11:08;3.30;;;2.60;;
12433;SDS011;6281;49.038;8.372;2022-09-03T03:13:35;2.80;;;2.60;;
12433;SDS011;6281;49.038;8.372;2022-09-03T03:16:03;4.60;;;2.30;;
12433;SDS011;6281;49.038;8.372;2022-09-03T03:18:31;3.10;;;2.80;;
12433;SDS011;6281;49.038;8.372;2022-09-03T03:21:02;3.63;;;2.20;;
12433;SDS011;6281;49.038;8.372;2022-09-03T03:23:30;2.80;;;2.30;;
12433;SDS011;6281;49.038;8.372;2022-09-03T03:26:00;4.23;;;2.63;;
12433;SDS011;6281;49.038;8.372;2022-09-03T03:28:28;3.83;;;2.70;;
12433;SDS011;6281;49.038;8.372;2022-09-03T03:30:58;2.63;;;2.33;;
12433;SDS011;6281;49.038;8.372;2022-09-03T03:33:24;3.93;;;2.23;;
12433;SDS011;6281;49.038;8.372;2022-09-03T03:35:51;2.53;;;2.30;;
12433;SDS011;6281;49.038;8.372;2022-09-03T03:38:18;2.47;;;2.27;;
12433;SDS011;6281;49.038;8.372;2022-09-03T03:40:45;2.17;;;1.97;;
12433;SDS011;6281;49.038;8.372;2022-09-03T03:43:13;4.27;;;2.90;;
12433;SDS011;6281;49.038;8.372;2022-09-03T03:45:40;2.80;;;2.23;;
12433;SDS011;6281;49.038;8.372;2022-09-03T03:48:07;3.50;;;2.73;;
12433;SDS011;6281;49.038;8.372;2022-09-03T03:50:33;2.50;;;2.30;;
12433;SDS011;6281;49.038;8.372;2022-09-03T03:53:00;4.30;;;2.70;;
12433;SDS011;6281;49.038;8.372;2022-09-03T03:55:27;4.03;;;3.20;;
12433;SDS011;6281;49.038;8.372;2022-09-03T03:57:54;4.60;;;2.50;;
12433;SDS011;6281;49.038;8.372;2022-09-03T04:00:22;4.53;;;2.73;;
12433;SDS011;6281;49.038;8.372;2022-09-03T04:02:49;4.57;;;2.53;;
12433;SDS011;6281;49.038;8.372;2022-09-03T04:05:15;3.73;;;2.57;;
12433;SDS011;6281;49.038;8.372;2022-09-03T04:07:42;3.43;;;2.33;;
12433;SDS011;6281;49.038;8.372;2022-09-03T04:10:09;3.17;;;2.87;;
12433;SDS011;6281;49.038;8.372;2022-09-03T04:12:36;5.17;;;2.80;;
12433;SDS011;6281;49.038;8.372;2022-09-03T04:15:03;2.83;;;2.50;;
12433;SDS011;6281;49.038;8.372;2022-09-03T04:17:32;3.60;;;2.83;;
12433;SDS011;6281;49.038;8.372;2022-09-03T04:19:59;3.60;;;2.87;;
12433;SDS011;6281;49.038;8.372;2022-09-03T04:22:27;3.77;;;3.10;;
12433;SDS011;6281;49.038;8.372;2022-09-03T04:24:54;3.07;;;2.77;;
12433;SDS011;6281;49.038;8.372;2022-09-03T04:27:21;2.50;;;2.30;;
12433;SDS011;6281;49.038;8.372;2022-09-03T04:29:48;2.77;;;2.57;;
12433;SDS011;6281;49.038;8.372;2022-09-03T04:32:14;5.90;;;2.93;;
12433;SDS011;6281;49.038;8.372;2022-09-03T04:35:00;2.97;;;2.53;;
12433;SDS011;6281;49.038;8.372;2022-09-03T04:37:27;5.07;;;2.60;;
12433;SDS011;6281;49.038;8.372;2022-09-03T04:39:54;5.87;;;2.80;;
12433;SDS011;6281;49.038;8.372;2022-09-03T04:42:21;2.97;;;2.67;;
12433;SDS011;6281;49.038;8.372;2022-09-03T04:44:48;3.60;;;2.60;;
12433;SDS011;6281;49.038;8.372;2022-09-03T04:47:14;4.00;;;2.70;;
12433;SDS011;6281;49.038;8.372;2022-09-03T04:49:41;3.40;;;2.67;;
12433;SDS011;6281;49.038;8.372;2022-09-03T04:52:10;4.97;;;2.57;;
12433;SDS011;6281;49.038;8.372;2022-09-03T04:54:37;4.17;;;2.50;;
12433;SDS011;6281;49.038;8.372;2022-09-03T04:57:04;4.93;;;2.97;;
12433;SDS011;6281;49.038;8.372;2022-09-03T04:59:31;5.93;;;2.70;;
12433;SDS011;6281;49.038;8.372;2022-09-03T05:01:58;3.20;;;2.87;;
12433;SDS011;6281;49.038;8.372;2022-09-03T05:04:25;3.57;;;2.70;;
12433;SDS011;6281;49.038;8.372;2022-09-03T05:06:52;4.50;;;3.07;;
12433;SDS011;6281;49.038;8.372;2022-09-03T05:09:20;3.30;;;3.00;;
12433;SDS011;6281;49.038;8.372;2022-09-03T05:11:47;3.93;;;3.10;;
12433;SDS011;6281;49.038;8.372;2022-09-03T05:14:14;5.63;;;3.10;;
12433;SDS011;6281;49.038;8.372;2022-09-03T05:16:41;4.33;;;2.97;;
12433;SDS011;6281;49.038;8.372;2022-09-03T05:19:08;3.73;;;2.97;;
12433;SDS011;6281;49.038;8.372;2022-09-03T05:21:35;3.70;;;2.70;;
12433;SDS011;6281;49.038;8.372;2022-09-03T05:24:02;3.93;;;2.57;;
12433;SDS011;6281;49.038;8.372;2022-09-03T05:26:31;3.43;;;2.80;;
12433;SDS011;6281;49.038;8.372;2022-09-03T05:29:02;3.07;;;2.70;;
12433;SDS011;6281;49.038;8.372;2022-09-03T05:31:31;3.40;;;3.10;;
12433;SDS011;6281;49.038;8.372;2022-09-03T05:34:01;4.30;;;2.90;;
12433;SDS011;6281;49.038;8.372;2022-09-03T05:36:29;3.60;;;3.00;;
12433;SDS011;6281;49.038;8.372;2022-09-03T05:38:58;3.57;;;3.13;;
12433;SDS011;6281;49.038;8.372;2022-09-03T05:41:26;3.47;;;3.00;;
12433;SDS011;6281;49.038;8.372;2022-09-03T05:43:55;4.43;;;3.17;;
12433;SDS011;6281;49.038;8.372;2022-09-03T05:46:23;3.53;;;3.23;;
12433;SDS011;6281;49.038;8.372;2022-09-03T05:48:55;3.73;;;3.33;;
12433;SDS011;6281;49.038;8.372;2022-09-03T05:51:22;4.60;;;3.20;;
12433;SDS011;6281;49.038;8.372;2022-09-03T05:53:50;5.97;;;3.70;;
12433;SDS011;6281;49.038;8.372;2022-09-03T05:56:20;3.67;;;3.10;;
12433;SDS011;6281;49.038;8.372;2022-09-03T05:58:49;4.20;;;3.70;;
12433;SDS011;6281;49.038;8.372;2022-09-03T06:01:19;5.37;;;3.57;;
12433;SDS011;6281;49.038;8.372;2022-09-03T06:03:47;4.83;;;4.17;;
12433;SDS011;6281;49.038;8.372;2022-09-03T06:06:19;4.93;;;3.63;;
12433;SDS011;6281;49.038;8.372;2022-09-03T06:08:49;5.20;;;3.57;;
12433;SDS011;6281;49.038;8.372;2022-09-03T06:11:16;5.43;;;3.70;;
12433;SDS011;6281;49.038;8.372;2022-09-03T06:13:43;4.80;;;3.87;;
12433;SDS011;6281;49.038;8.372;2022-09-03T06:16:11;4.20;;;3.80;;
12433;SDS011;6281;49.038;8.372;2022-09-03T06:18:39;4.33;;;3.30;;
12433;SDS011;6281;49.038;8.372;2022-09-03T06:21:06;4.93;;;3.67;;
12433;SDS011;6281;49.038;8.372;2022-09-03T06:23:34;3.53;;;3.23;;
12433;SDS011;6281;49.038;8.372;2022-09-03T06:26:02;4.70;;;3.57;;
12433;SDS011;6281;49.038;8.372;2022-09-03T06:28:30;5.27;;;3.37;;
12433;SDS011;6281;49.038;8.372;2022-09-03T06:30:58;4.50;;;3.50;;
12433;SDS011;6281;49.038;8.372;2022-09-03T06:33:26;4.00;;;3.60;;
12433;SDS011;6281;49.038;8.372;2022-09-03T06:35:56;4.47;;;3.90;;
12433;SDS011;6281;49.038;8.372;2022-09-03T06:38:24;4.57;;;3.60;;
12433;SDS011;6281;49.038;8.372;2022-09-03T06:40:54;3.77;;;3.47;;
12433;SDS011;6281;49.038;8.372;2022-09-03T06:43:23;4.60;;;3.50;;
12433;SDS011;6281;49.038;8.372;2022-09-03T06:45:54;5.67;;;3.90;;
12433;SDS011;6281;49.038;8.372;2022-09-03T06:48:22;5.47;;;4.40;;
12433;SDS011;6281;49.038;8.372;2022-09-03T06:50:52;6.63;;;4.20;;
12433;SDS011;6281;49.038;8.372;2022-09-03T06:53:22;4.90;;;3.53;;
12433;SDS011;6281;49.038;8.372;2022-09-03T06:55:54;6.20;;;4.33;;
12433;SDS011;6281;49.038;8.372;2022-09-03T06:58:22;4.77;;;4.17;;
12433;SDS011;6281;49.038;8.372;2022-09-03T07:00:49;6.00;;;4.67;;
12433;SDS011;6281;49.038;8.372;2022-09-03T07:03:17;4.90;;;4.40;;
12433;SDS011;6281;49.038;8.372;2022-09-03T07:05:45;5.70;;;5.07;;
12433;SDS011;6281;49.038;8.372;2022-09-03T07:08:12;7.73;;;5.07;;
12433;SDS011;6281;49.038;8.372;2022-09-03T07:10:40;7.73;;;5.27;;
12433;SDS011;6281;49.038;8.372;2022-09-03T07:13:11;7.13;;;4.73;;
12433;SDS011;6281;49.038;8.372;2022-09-03T07:15:38;6.30;;;5.70;;
12433;SDS011;6281;49.038;8.372;2022-09-03T07:18:06;7.77;;;5.23;;
12433;SDS011;6281;49.038;8.372;2022-09-03T07:20:32;6.90;;;5.73;;
12433;SDS011;6281;49.038;8.372;2022-09-03T07:22:59;9.87;;;6.07;;
12433;SDS011;6281;49.038;8.372;2022-09-03T07:25:26;8.33;;;6.20;;
12433;SDS011;6281;49.038;8.372;2022-09-03T07:27:56;7.83;;;7.03;;
12433;SDS011;6281;49.038;8.372;2022-09-03T07:30:24;9.20;;;7.00;;
12433;SDS011;6281;49.038;8.372;2022-09-03T07:32:51;10.43;;;6.90;;
12433;SDS011;6281;49.038;8.372;2022-09-03T07:35:18;8.63;;;6.63;;
12433;SDS011;6281;49.038;8.372;2022-09-03T07:37:49;6.93;;;5.90;;
12433;SDS011;6281;49.038;8.372;2022-09-03T07:40:16;8.83;;;6.30;;
12433;SDS011;6281;49.038;8.372;2022-09-03T07:42:44;6.57;;;5.87;;
12433;SDS011;6281;49.038;8.372;2022-09-03T07:45:13;6.80;;;5.87;;
12433;SDS011;6281;49.038;8.372;2022-09-03T07:47:47;9.93;;;6.10;;
12433;SDS011;6281;49.038;8.372;2022-09-03T07:50:14;9.43;;;5.70;;
12433;SDS011;6281;49.038;8.372;2022-09-03T07:52:41;11.50;;;6.67;;
12433;SDS011;6281;49.038;8.372;2022-09-03T07:55:08;7.67;;;6.23;;
12433;SDS011;6281;49.038;8.372;2022-09-03T07:57:35;9.40;;;6.33;;
12433;SDS011;6281;49.038;8.372;2022-09-03T08:00:03;9.07;;;6.03;;
12433;SDS011;6281;49.038;8.372;2022-09-03T08:02:33;10.70;;;5.67;;
12433;SDS011;6281;49.038;8.372;2022-09-03T08:05:00;8.83;;;6.63;;
12433;SDS011;6281;49.038;8.372;2022-09-03T08:07:27;12.27;;;6.87;;
12433;SDS011;6281;49.038;8.372;2022-09-03T08:09:55;15.10;;;7.30;;
12433;SDS011;6281;49.038;8.372;2022-09-03T08:12:22;10.77;;;7.27;;
12433;SDS011;6281;49.038;8.372;2022-09-03T08:14:49;9.93;;;6.77;;
12433;SDS011;6281;49.038;8.372;2022-09-03T08:17:16;8.10;;;6.37;;
12433;SDS011;6281;49.038;8.372;2022-09-03T08:19:44;8.13;;;6.37;;
12433;SDS011;6281;49.038;8.372;2022-09-03T08:22:11;7.50;;;6.00;;
12433;SDS011;6281;49.038;8.372;2022-09-03T08:24:38;8.07;;;6.53;;
12433;SDS011;6281;49.038;8.372;2022-09-03T08:27:06;9.00;;;6.53;;
12433;SDS011;6281;49.038;8.372;2022-09-03T08:29:33;8.33;;;6.90;;
12433;SDS011;6281;49.038;8.372;2022-09-03T08:32:01;7.13;;;6.23;;
12433;SDS011;6281;49.038;8.372;2022-09-03T08:34:29;10.57;;;7.67;;
12433;SDS011;6281;49.038;8.372;2022-09-03T08:36:57;6.97;;;6.37;;
12433;SDS011;6281;49.038;8.372;2022-09-03T08:39:25;7.10;;;6.40;;
12433;SDS011;6281;49.038;8.372;2022-09-03T08:42:06;9.90;;;6.97;;
12433;SDS011;6281;49.038;8.372;2022-09-03T08:44:44;8.63;;;6.77;;
12433;SDS011;6281;49.038;8.372;2022-09-03T08:47:15;10.53;;;7.13;;
12433;SDS011;6281;49.038;8.372;2022-09-03T08:49:46;7.97;;;6.60;;
12433;SDS011;6281;49.038;8.372;2022-09-03T08:52:22;8.40;;;6.97;;
12433;SDS011;6281;49.038;8.372;2022-09-03T08:55:07;9.30;;;7.70;;
12433;SDS011;6281;49.038;8.372;2022-09-03T08:57:44;9.00;;;8.13;;
12433;SDS011;6281;49.038;8.372;2022-09-03T09:00:13;9.03;;;8.03;;
12433;SDS011;6281;49.038;8.372;2022-09-03T09:02:44;9.47;;;7.33;;
12433;SDS011;6281;49.038;8.372;2022-09-03T09:05:36;7.77;;;7.03;;
12433;SDS011;6281;49.038;8.372;2022-09-03T09:08:12;7.73;;;6.93;;
12433;SDS011;6281;49.038;8.372;2022-09-03T09:10:46;8.77;;;6.80;;
12433;SDS011;6281;49.038;8.372;2022-09-03T09:13:21;9.87;;;7.37;;
12433;SDS011;6281;49.038;8.372;2022-09-03T09:15:55;10.27;;;7.77;;
12433;SDS011;6281;49.038;8.372;2022-09-03T09:18:33;7.93;;;7.13;;
12433;SDS011;6281;49.038;8.372;2022-09-03T09:21:12;7.53;;;6.73;;
12433;SDS011;6281;49.038;8.372;2022-09-03T09:23:43;8.60;;;7.20;;
12433;SDS011;6281;49.038;8.372;2022-09-03T09:26:13;8.63;;;6.53;;
12433;SDS011;6281;49.038;8.372;2022-09-03T09:28:42;7.43;;;6.73;;
12433;SDS011;6281;49.038;8.372;2022-09-03T09:31:13;8.67;;;7.27;;
12433;SDS011;6281;49.038;8.372;2022-09-03T09:33:42;7.83;;;6.50;;
12433;SDS011;6281;49.038;8.372;2022-09-03T10:16:06;6.03;;;5.43;;
12433;SDS011;6281;49.038;8.372;2022-09-03T10:18:41;5.50;;;5.00;;
12433;SDS011;6281;49.038;8.372;2022-09-03T10:21:11;11.40;;;7.33;;
12433;SDS011;6281;49.038;8.372;2022-09-03T10:23:47;7.83;;;5.67;;
12433;SDS011;6281;49.038;8.372;2022-09-03T10:26:21;6.70;;;6.10;;
12433;SDS011;6281;49.038;8.372;2022-09-03T10:28:55;8.23;;;5.23;;
12433;SDS011;6281;49.038;8.372;2022-09-03T10:31:28;6.10;;;5.20;;
12433;SDS011;6281;49.038;8.372;2022-09-03T10:34:05;5.97;;;5.33;;
12433;SDS011;6281;49.038;8.372;2022-09-03T10:36:38;5.40;;;4.90;;
12433;SDS011;6281;49.038;8.372;2022-09-03T10:39:12;4.60;;;4.20;;
12433;SDS011;6281;49.038;8.372;2022-09-03T10:41:49;5.53;;;3.97;;
12433;SDS011;6281;49.038;8.372;2022-09-03T10:44:30;4.87;;;3.60;;
12433;SDS011;6281;49.038;8.372;2022-09-03T10:47:13;4.27;;;3.87;;
12433;SDS011;6281;49.038;8.372;2022-09-03T10:49:54;5.37;;;4.60;;
12433;SDS011;6281;49.038;8.372;2022-09-03T10:52:29;7.50;;;6.03;;
12433;SDS011;6281;49.038;8.372;2022-09-03T10:55:07;9.30;;;7.53;;
12433;SDS011;6281;49.038;8.372;2022-09-03T10:57:45;8.03;;;7.10;;
12433;SDS011;6281;49.038;8.372;2022-09-03T11:00:16;9.90;;;7.30;;
12433;SDS011;6281;49.038;8.372;2022-09-03T11:03:02;9.33;;;7.83;;
12433;SDS011;6281;49.038;8.372;2022-09-03T11:05:55;9.17;;;8.37;;
12433;SDS011;6281;49.038;8.372;2022-09-03T11:08:27;8.97;;;8.07;;
12433;SDS011;6281;49.038;8.372;2022-09-03T11:10:59;10.20;;;9.20;;
12433;SDS011;6281;49.038;8.372;2022-09-03T11:13:37;10.03;;;9.03;;
12433;SDS011;6281;49.038;8.372;2022-09-03T11:16:10;10.57;;;9.57;;
12433;SDS011;6281;49.038;8.372;2022-09-03T11:18:47;11.63;;;8.23;;
12433;SDS011;6281;49.038;8.372;2022-09-03T11:21:17;8.70;;;7.90;;
12433;SDS011;6281;49.038;8.372;2022-09-03T11:23:48;8.53;;;7.50;;
12433;SDS011;6281;49.038;8.372;2022-09-03T11:26:22;8.60;;;7.77;;
12433;SDS011;6281;49.038;8.372;2022-09-03T11:28:53;7.83;;;7.13;;
12433;SDS011;6281;49.038;8.372;2022-09-03T11:31:29;8.13;;;6.90;;
12433;SDS011;6281;49.038;8.372;2022-09-03T11:34:06;8.87;;;7.60;;
12433;SDS011;6281;49.038;8.372;2022-09-03T11:36:38;8.50;;;7.70;;
12433;SDS011;6281;49.038;8.372;2022-09-03T11:39:12;9.23;;;8.23;;
12433;SDS011;6281;49.038;8.372;2022-09-03T11:41:44;9.53;;;8.47;;
12433;SDS011;6281;49.038;8.372;2022-09-03T11:44:23;8.73;;;7.40;;
12433;SDS011;6281;49.038;8.372;2022-09-03T11:47:11;8.30;;;7.40;;
12433;SDS011;6281;49.038;8.372;2022-09-03T11:49:44;8.37;;;7.53;;
12433;SDS011;6281;49.038;8.372;2022-09-03T11:52:24;8.37;;;7.67;;
12433;SDS011;6281;49.038;8.372;2022-09-03T11:54:52;8.13;;;7.37;;
12433;SDS011;6281;49.038;8.372;2022-09-03T11:57:22;8.80;;;7.37;;
12433;SDS011;6281;49.038;8.372;2022-09-03T11:59:52;8.43;;;7.63;;
12433;SDS011;6281;49.038;8.372;2022-09-03T12:02:24;7.60;;;6.83;;
12433;SDS011;6281;49.038;8.372;2022-09-03T12:05:01;8.50;;;7.70;;
12433;SDS011;6281;49.038;8.372;2022-09-03T12:07:43;8.10;;;7.23;;
12433;SDS011;6281;49.038;8.372;2022-09-03T12:10:26;7.53;;;6.60;;
12433;SDS011;6281;49.038;8.372;2022-09-03T12:13:07;8.93;;;6.67;;
12433;SDS011;6281;49.038;8.372;2022-09-03T12:15:59;8.10;;;6.73;;
12433;SDS011;6281;49.038;8.372;2022-09-03T12:18:47;7.13;;;6.43;;
12433;SDS011;6281;49.038;8.372;2022-09-03T12:21:19;7.63;;;6.37;;
12433;SDS011;6281;49.038;8.372;2022-09-03T12:23:47;7.77;;;7.17;;
12433;SDS011;6281;49.038;8.372;2022-09-03T12:26:17;7.73;;;7.03;;
12433;SDS011;6281;49.038;8.372;2022-09-03T12:28:48;7.70;;;6.53;;
12433;SDS011;6281;49.038;8.372;2022-09-03T12:31:18;7.00;;;6.37;;
12433;SDS011;6281;49.038;8.372;2022-09-03T12:33:51;9.70;;;7.10;;
12433;SDS011;6281;49.038;8.372;2022-09-03T12:36:21;6.72;;;6.22;;
12433;SDS011;6281;49.038;8.372;2022-09-03T12:38:48;6.88;;;6.18;;
12433;SDS011;6281;49.038;8.372;2022-09-03T12:41:23;7.05;;;6.45;;
12433;SDS011;6281;49.038;8.372;2022-09-03T12:43:53;6.60;;;6.10;;
12433;SDS011;6281;49.038;8.372;2022-09-03T12:46:23;7.97;;;7.18;;
12433;SDS011;6281;49.038;8.372;2022-09-03T12:48:54;7.30;;;6.63;;
12433;SDS011;6281;49.038;8.372;2022-09-03T12:51:29;7.23;;;6.53;;
12433;SDS011;6281;49.038;8.372;2022-09-03T12:53:57;6.53;;;6.00;;
12433;SDS011;6281;49.038;8.372;2022-09-03T12:56:25;6.77;;;6.17;;
12433;SDS011;6281;49.038;8.372;2022-09-03T12:58:58;6.80;;;6.20;;
12433;SDS011;6281;49.038;8.372;2022-09-03T13:01:30;6.37;;;5.87;;
12433;SDS011;6281;49.038;8.372;2022-09-03T13:04:01;6.47;;;5.87;;
12433;SDS011;6281;49.038;8.372;2022-09-03T13:06:34;6.50;;;5.90;;
12433;SDS011;6281;49.038;8.372;2022-09-03T13:09:09;5.85;;;5.35;;
12433;SDS011;6281;49.038;8.372;2022-09-03T13:11:36;5.18;;;4.78;;
12433;SDS011;6281;49.038;8.372;2022-09-03T13:14:04;5.68;;;5.15;;
12433;SDS011;6281;49.038;8.372;2022-09-03T13:16:45;5.10;;;4.18;;
12433;SDS011;6281;49.038;8.372;2022-09-03T13:19:38;4.25;;;3.95;;
12433;SDS011;6281;49.038;8.372;2022-09-03T13:22:15;6.25;;;4.60;;
12433;SDS011;6281;49.038;8.372;2022-09-03T13:24:53;5.50;;;4.65;;
12433;SDS011;6281;49.038;8.372;2022-09-03T13:27:29;5.20;;;4.70;;
12433;SDS011;6281;49.038;8.372;2022-09-03T13:30:07;5.10;;;4.60;;
12433;SDS011;6281;49.038;8.372;2022-09-03T13:32:44;6.03;;;4.10;;
12433;SDS011;6281;49.038;8.372;2022-09-03T13:35:25;4.30;;;3.90;;
12433;SDS011;6281;49.038;8.372;2022-09-03T13:38:02;2.00;;;1.80;;
12433;SDS011;6281;49.038;8.372;2022-09-03T13:40:48;1.93;;;1.70;;
12433;SDS011;6281;49.038;8.372;2022-09-03T13:43:36;1.23;;;1.13;;
12433;SDS011;6281;49.038;8.372;2022-09-03T13:46:11;3.00;;;1.10;;
12433;SDS011;6281;49.038;8.372;2022-09-03T13:48:49;3.57;;;1.00;;
12433;SDS011;6281;49.038;8.372;2022-09-03T13:51:42;1.70;;;0.87;;
12433;SDS011;6281;49.038;8.372;2022-09-03T13:54:16;0.70;;;0.70;;
12433;SDS011;6281;49.038;8.372;2022-09-03T13:56:52;1.23;;;0.60;;
12433;SDS011;6281;49.038;8.372;2022-09-03T13:59:28;2.07;;;0.50;;
12433;SDS011;6281;49.038;8.372;2022-09-03T14:02:13;0.73;;;0.60;;
12433;SDS011;6281;49.038;8.372;2022-09-03T14:04:52;1.83;;;0.60;;
12433;SDS011;6281;49.038;8.372;2022-09-03T14:07:33;1.17;;;0.60;;
12433;SDS011;6281;49.038;8.372;2022-09-03T14:17:41;1.00;;;0.63;;
12433;SDS011;6281;49.038;8.372;2022-09-03T14:21:02;0.80;;;0.70;;
12433;SDS011;6281;49.038;8.372;2022-09-03T15:19:50;0.57;;;0.40;;
12433;SDS011;6281;49.038;8.372;2022-09-03T15:38:45;1.77;;;0.70;;
12433;SDS011;6281;49.038;8.372;2022-09-03T15:44:06;0.80;;;0.70;;
12433;SDS011;6281;49.038;8.372;2022-09-03T15:46:46;1.57;;;0.70;;
12433;SDS011;6281;49.038;8.372;2022-09-03T15:49:19;0.73;;;0.60;;
12433;SDS011;6281;49.038;8.372;2022-09-03T15:51:56;1.20;;;0.70;;
12433;SDS011;6281;49.038;8.372;2022-09-03T15:54:31;2.07;;;1.00;;
12433;SDS011;6281;49.038;8.372;2022-09-03T15:57:09;2.30;;;0.90;;
12433;SDS011;6281;49.038;8.372;2022-09-03T15:59:40;1.37;;;0.60;;
12433;SDS011;6281;49.038;8.372;2022-09-03T16:02:13;1.03;;;0.70;;
12433;SDS011;6281;49.038;8.372;2022-09-03T16:04:49;0.60;;;0.60;;
12433;SDS011;6281;49.038;8.372;2022-09-03T16:07:36;1.17;;;0.70;;
12433;SDS011;6281;49.038;8.372;2022-09-03T16:10:15;0.80;;;0.80;;
12433;SDS011;6281;49.038;8.372;2022-09-03T16:12:46;2.50;;;0.63;;
12433;SDS011;6281;49.038;8.372;2022-09-03T16:15:22;0.77;;;0.57;;
12433;SDS011;6281;49.038;8.372;2022-09-03T16:17:53;1.03;;;0.60;;
12433;SDS011;6281;49.038;8.372;2022-09-03T16:20:27;1.53;;;0.80;;
12433;SDS011;6281;49.038;8.372;2022-09-03T16:23:00;4.10;;;0.83;;
12433;SDS011;6281;49.038;8.372;2022-09-03T16:25:34;1.07;;;0.60;;
12433;SDS011;6281;49.038;8.372;2022-09-03T16:28:14;0.60;;;0.60;;
12433;SDS011;6281;49.038;8.372;2022-09-03T16:30:48;0.90;;;0.70;;
12433;SDS011;6281;49.038;8.372;2022-09-03T16:33:30;0.80;;;0.80;;
12433;SDS011;6281;49.038;8.372;2022-09-03T16:36:13;2.40;;;0.70;;
12433;SDS011;6281;49.038;8.372;2022-09-03T16:38:52;6.83;;;0.80;;
12433;SDS011;6281;49.038;8.372;2022-09-03T16:41:29;0.63;;;0.63;;
12433;SDS011;6281;49.038;8.372;2022-09-03T16:44:03;1.93;;;1.00;;
12433;SDS011;6281;49.038;8.372;2022-09-03T16:46:39;0.77;;;0.73;;
12433;SDS011;6281;49.038;8.372;2022-09-03T16:49:16;2.20;;;1.10;;
12433;SDS011;6281;49.038;8.372;2022-09-03T16:51:53;1.97;;;1.00;;
12433;SDS011;6281;49.038;8.372;2022-09-03T16:54:26;0.93;;;0.80;;
12433;SDS011;6281;49.038;8.372;2022-09-03T16:57:10;0.80;;;0.80;;
12433;SDS011;6281;49.038;8.372;2022-09-03T16:59:48;1.90;;;1.10;;
12433;SDS011;6281;49.038;8.372;2022-09-03T17:02:30;1.20;;;1.10;;
12433;SDS011;6281;49.038;8.372;2022-09-03T17:08:23;1.80;;;1.10;;
12433;SDS011;6281;49.038;8.372;2022-09-03T17:11:00;1.63;;;0.80;;
12433;SDS011;6281;49.038;8.372;2022-09-03T17:13:42;1.07;;;0.90;;
12433;SDS011;6281;49.038;8.372;2022-09-03T17:16:23;2.87;;;1.00;;
12433;SDS011;6281;49.038;8.372;2022-09-03T17:19:00;3.07;;;0.97;;
12433;SDS011;6281;49.038;8.372;2022-09-03T17:21:38;1.90;;;0.90;;
12433;SDS011;6281;49.038;8.372;2022-09-03T17:24:24;0.73;;;0.73;;
12433;SDS011;6281;49.038;8.372;2022-09-03T17:27:15;1.30;;;0.90;;
12433;SDS011;6281;49.038;8.372;2022-09-03T17:29:58;0.70;;;0.70;;
12433;SDS011;6281;49.038;8.372;2022-09-03T17:32:41;1.47;;;1.00;;
12433;SDS011;6281;49.038;8.372;2022-09-03T17:35:21;1.47;;;0.90;;
12433;SDS011;6281;49.038;8.372;2022-09-03T17:37:58;1.10;;;1.00;;
12433;SDS011;6281;49.038;8.372;2022-09-03T17:40:37;1.40;;;1.10;;
12433;SDS011;6281;49.038;8.372;2022-09-03T17:43:15;1.37;;;0.90;;
12433;SDS011;6281;49.038;8.372;2022-09-03T17:45:50;1.10;;;1.00;;